sensor_id;sensor_type;location;lat;lon;timestamp;pressure;altitude;pressure_sealevel;temperature;humidity
76132;BME280;64877;50.994;13.650;2023-02-24T00:01:00;99033.47;;;9.21;84.17
76132;BME280;64877;50.994;13.650;2023-02-24T00:03:36;99029.81;;;9.11;84.50
76132;BME280;64877;50.994;13.650;2023-02-24T00:06:03;99024.31;;;9.01;85.06
76132;BME280;64877;50.994;13.650;2023-02-24T00:08:34;99032.88;;;8.95;85.13
76132;BME280;64877;50.994;13.650;2023-02-24T00:11:06;99031.16;;;9.05;84.96
76132;BME280;64877;50.994;13.650;2023-02-24T00:13:33;99024.66;;;9.07;84.54
76132;BME280;64877;50.994;13.650;2023-02-24T00:16:03;99028.34;;;9.06;84.54
76132;BME280;64877;50.994;13.650;2023-02-24T00:18:30;99026.16;;;9.00;85.06
76132;BME280;64877;50.994;13.650;2023-02-24T00:21:02;99017.56;;;9.06;84.47
76132;BME280;64877;50.994;13.650;2023-02-24T00:23:28;99020.88;;;9.10;84.65
76132;BME280;64877;50.994;13.650;2023-02-24T00:25:58;99013.16;;;9.05;84.20
76132;BME280;64877;50.994;13.650;2023-02-24T00:28:27;99023.84;;;8.96;84.16
76132;BME280;64877;50.994;13.650;2023-02-24T00:30:52;99022.50;;;8.90;84.89
76132;BME280;64877;50.994;13.650;2023-02-24T00:33:20;99027.88;;;9.01;84.07
76132;BME280;64877;50.994;13.650;2023-02-24T00:35:48;99023.19;;;9.03;83.42
76132;BME280;64877;50.994;13.650;2023-02-24T00:38:14;99024.66;;;9.07;83.38
76132;BME280;64877;50.994;13.650;2023-02-24T00:40:40;99028.59;;;9.03;83.25
76132;BME280;64877;50.994;13.650;2023-02-24T00:43:10;99027.59;;;9.04;82.31
76132;BME280;64877;50.994;13.650;2023-02-24T00:45:35;99024.91;;;9.04;82.57
76132;BME280;64877;50.994;13.650;2023-02-24T00:48:03;99017.31;;;9.10;82.45
76132;BME280;64877;50.994;13.650;2023-02-24T00:50:29;99014.59;;;9.10;81.95
76132;BME280;64877;50.994;13.650;2023-02-24T00:52:55;99021.72;;;8.99;81.89
76132;BME280;64877;50.994;13.650;2023-02-24T00:55:20;98999.34;;;8.99;82.42
76132;BME280;64877;50.994;13.650;2023-02-24T00:57:47;99001.69;;;8.92;82.96
76132;BME280;64877;50.994;13.650;2023-02-24T01:00:15;99010.47;;;8.94;82.35
76132;BME280;64877;50.994;13.650;2023-02-24T01:02:42;99013.44;;;8.91;82.56
76132;BME280;64877;50.994;13.650;2023-02-24T01:05:12;99007.56;;;8.86;82.93
76132;BME280;64877;50.994;13.650;2023-02-24T01:07:37;99009.75;;;8.92;81.74
76132;BME280;64877;50.994;13.650;2023-02-24T01:10:04;99003.41;;;8.82;82.56
76132;BME280;64877;50.994;13.650;2023-02-24T01:12:35;99001.94;;;8.78;82.64
76132;BME280;64877;50.994;13.650;2023-02-24T01:15:17;99003.06;;;8.75;82.32
76132;BME280;64877;50.994;13.650;2023-02-24T01:17:44;99004.50;;;8.79;82.21
76132;BME280;64877;50.994;13.650;2023-02-24T01:20:10;98996.56;;;8.78;82.48
76132;BME280;64877;50.994;13.650;2023-02-24T01:22:48;98994.97;;;8.75;82.35
76132;BME280;64877;50.994;13.650;2023-02-24T01:25:14;99001.09;;;8.77;82.41
76132;BME280;64877;50.994;13.650;2023-02-24T01:27:40;98992.19;;;8.66;81.47
76132;BME280;64877;50.994;13.650;2023-02-24T01:30:10;98992.66;;;8.71;80.84
76132;BME280;64877;50.994;13.650;2023-02-24T01:32:40;98984.59;;;8.71;81.14
76132;BME280;64877;50.994;13.650;2023-02-24T01:35:05;98994.13;;;8.64;80.94
76132;BME280;64877;50.994;13.650;2023-02-24T01:37:31;98992.75;;;8.69;81.25
76132;BME280;64877;50.994;13.650;2023-02-24T01:39:58;98987.88;;;8.63;80.95
76132;BME280;64877;50.994;13.650;2023-02-24T01:42:23;98982.75;;;8.49;81.64
76132;BME280;64877;50.994;13.650;2023-02-24T01:47:17;98977.69;;;8.33;81.94
76132;BME280;64877;50.994;13.650;2023-02-24T01:49:46;98970.16;;;8.38;83.26
76132;BME280;64877;50.994;13.650;2023-02-24T01:52:26;98964.97;;;8.35;82.68
76132;BME280;64877;50.994;13.650;2023-02-24T01:55:17;98960.44;;;8.24;82.32
76132;BME280;64877;50.994;13.650;2023-02-24T01:57:45;98950.94;;;8.32;82.36
76132;BME280;64877;50.994;13.650;2023-02-24T02:00:12;98954.88;;;8.39;82.25
76132;BME280;64877;50.994;13.650;2023-02-24T02:03:01;98953.78;;;8.41;81.94
76132;BME280;64877;50.994;13.650;2023-02-24T02:05:28;98962.94;;;8.39;81.16
76132;BME280;64877;50.994;13.650;2023-02-24T02:07:54;98955.00;;;8.37;81.82
76132;BME280;64877;50.994;13.650;2023-02-24T02:10:19;98946.66;;;8.40;81.38
76132;BME280;64877;50.994;13.650;2023-02-24T02:12:45;98947.91;;;8.36;81.31
76132;BME280;64877;50.994;13.650;2023-02-24T02:15:13;98944.44;;;8.34;82.48
76132;BME280;64877;50.994;13.650;2023-02-24T02:36:58;98925.38;;;8.26;81.22
76132;BME280;64877;50.994;13.650;2023-02-24T02:42:48;98922.91;;;8.34;81.22
76132;BME280;64877;50.994;13.650;2023-02-24T02:45:25;98923.28;;;8.29;81.12
76132;BME280;64877;50.994;13.650;2023-02-24T02:48:18;98918.88;;;8.28;81.44
76132;BME280;64877;50.994;13.650;2023-02-24T02:50:57;98917.81;;;8.31;81.72
76132;BME280;64877;50.994;13.650;2023-02-24T02:56:17;98922.69;;;8.26;81.40
76132;BME280;64877;50.994;13.650;2023-02-24T02:58:50;98916.81;;;8.21;81.59
76132;BME280;64877;50.994;13.650;2023-02-24T03:01:19;98917.69;;;8.21;81.67
76132;BME280;64877;50.994;13.650;2023-02-24T03:03:50;98917.56;;;8.23;81.92
76132;BME280;64877;50.994;13.650;2023-02-24T03:08:57;98908.00;;;8.19;83.06
76132;BME280;64877;50.994;13.650;2023-02-24T03:11:24;98907.88;;;8.20;82.88
76132;BME280;64877;50.994;13.650;2023-02-24T03:13:53;98913.03;;;8.23;82.17
76132;BME280;64877;50.994;13.650;2023-02-24T03:16:33;98908.50;;;8.24;81.73
76132;BME280;64877;50.994;13.650;2023-02-24T03:19:03;98910.06;;;8.15;82.94
76132;BME280;64877;50.994;13.650;2023-02-24T03:23:58;98908.13;;;8.28;81.25
76132;BME280;64877;50.994;13.650;2023-02-24T03:29:02;98903.47;;;8.19;81.36
76132;BME280;64877;50.994;13.650;2023-02-24T03:31:45;98907.78;;;8.22;82.53
76132;BME280;64877;50.994;13.650;2023-02-24T03:36:41;98908.50;;;8.13;81.11
76132;BME280;64877;50.994;13.650;2023-02-24T03:39:07;98910.94;;;7.93;81.93
76132;BME280;64877;50.994;13.650;2023-02-24T03:41:46;98913.13;;;7.99;81.42
76132;BME280;64877;50.994;13.650;2023-02-24T03:44:12;98909.72;;;7.97;80.49
76132;BME280;64877;50.994;13.650;2023-02-24T03:46:39;98915.47;;;7.82;81.71
76132;BME280;64877;50.994;13.650;2023-02-24T03:49:10;98913.84;;;7.79;82.05
76132;BME280;64877;50.994;13.650;2023-02-24T03:51:43;98919.44;;;7.65;82.02
76132;BME280;64877;50.994;13.650;2023-02-24T03:54:45;98916.16;;;7.61;81.73
76132;BME280;64877;50.994;13.650;2023-02-24T03:57:25;98925.06;;;7.62;82.29
76132;BME280;64877;50.994;13.650;2023-02-24T04:00:03;98926.56;;;7.66;80.32
76132;BME280;64877;50.994;13.650;2023-02-24T04:02:49;98917.97;;;7.61;81.11
76132;BME280;64877;50.994;13.650;2023-02-24T04:05:19;98916.03;;;7.63;80.59
76132;BME280;64877;50.994;13.650;2023-02-24T04:07:52;98918.44;;;7.55;81.76
76132;BME280;64877;50.994;13.650;2023-02-24T04:10:26;98910.28;;;7.56;81.26
76132;BME280;64877;50.994;13.650;2023-02-24T04:15:52;98897.22;;;7.51;82.27
76132;BME280;64877;50.994;13.650;2023-02-24T04:18:26;98899.63;;;7.55;82.06
76132;BME280;64877;50.994;13.650;2023-02-24T04:20:54;98894.38;;;7.53;80.70
76132;BME280;64877;50.994;13.650;2023-02-24T04:23:38;98896.44;;;7.49;81.86
76132;BME280;64877;50.994;13.650;2023-02-24T04:26:05;98887.78;;;7.46;81.84
76132;BME280;64877;50.994;13.650;2023-02-24T04:28:32;98891.19;;;7.48;81.92
76132;BME280;64877;50.994;13.650;2023-02-24T04:31:04;98885.56;;;7.40;81.50
76132;BME280;64877;50.994;13.650;2023-02-24T04:33:34;98873.84;;;7.41;82.24
76132;BME280;64877;50.994;13.650;2023-02-24T04:36:00;98870.78;;;7.45;81.46
76132;BME280;64877;50.994;13.650;2023-02-24T04:38:26;98867.47;;;7.31;80.27
76132;BME280;64877;50.994;13.650;2023-02-24T04:40:52;98861.50;;;7.27;81.95
76132;BME280;64877;50.994;13.650;2023-02-24T04:43:17;98865.59;;;7.20;79.97
76132;BME280;64877;50.994;13.650;2023-02-24T04:45:43;98865.03;;;7.28;80.91
76132;BME280;64877;50.994;13.650;2023-02-24T04:48:09;98865.75;;;7.30;81.01
76132;BME280;64877;50.994;13.650;2023-02-24T04:50:42;98854.25;;;7.16;81.99
76132;BME280;64877;50.994;13.650;2023-02-24T04:53:10;98853.16;;;7.19;81.67
76132;BME280;64877;50.994;13.650;2023-02-24T04:55:38;98846.72;;;7.21;80.68
76132;BME280;64877;50.994;13.650;2023-02-24T04:58:26;98843.81;;;7.00;82.13
76132;BME280;64877;50.994;13.650;2023-02-24T05:00:52;98847.75;;;7.08;82.05
76132;BME280;64877;50.994;13.650;2023-02-24T05:03:21;98841.06;;;7.13;82.05
76132;BME280;64877;50.994;13.650;2023-02-24T05:05:51;98838.66;;;7.21;80.28
76132;BME280;64877;50.994;13.650;2023-02-24T05:08:18;98834.38;;;7.19;80.96
76132;BME280;64877;50.994;13.650;2023-02-24T05:10:45;98829.38;;;7.25;81.25
76132;BME280;64877;50.994;13.650;2023-02-24T05:13:19;98840.47;;;7.21;80.60
76132;BME280;64877;50.994;13.650;2023-02-24T05:15:45;98835.53;;;7.04;81.09
76132;BME280;64877;50.994;13.650;2023-02-24T05:18:13;98831.69;;;7.19;79.70
76132;BME280;64877;50.994;13.650;2023-02-24T05:20:44;98829.72;;;7.21;79.98
76132;BME280;64877;50.994;13.650;2023-02-24T05:23:34;98829.13;;;7.17;81.16
76132;BME280;64877;50.994;13.650;2023-02-24T05:26:01;98824.75;;;7.28;79.88
76132;BME280;64877;50.994;13.650;2023-02-24T05:28:27;98821.78;;;7.19;81.04
76132;BME280;64877;50.994;13.650;2023-02-24T05:31:03;98820.44;;;7.14;80.36
76132;BME280;64877;50.994;13.650;2023-02-24T05:33:30;98823.13;;;7.25;81.50
76132;BME280;64877;50.994;13.650;2023-02-24T05:35:55;98821.56;;;7.22;80.30
76132;BME280;64877;50.994;13.650;2023-02-24T05:38:21;98831.19;;;7.25;78.54
76132;BME280;64877;50.994;13.650;2023-02-24T05:40:47;98826.28;;;7.08;79.93
76132;BME280;64877;50.994;13.650;2023-02-24T05:43:15;98830.19;;;7.15;78.95
76132;BME280;64877;50.994;13.650;2023-02-24T05:45:45;98825.78;;;7.03;79.43
76132;BME280;64877;50.994;13.650;2023-02-24T05:48:11;98814.63;;;6.96;79.00
76132;BME280;64877;50.994;13.650;2023-02-24T05:50:40;98822.19;;;6.91;78.84
76132;BME280;64877;50.994;13.650;2023-02-24T05:53:06;98826.16;;;6.74;79.23
76132;BME280;64877;50.994;13.650;2023-02-24T05:55:34;98836.69;;;6.77;79.04
76132;BME280;64877;50.994;13.650;2023-02-24T05:58:00;98830.81;;;6.72;79.32
76132;BME280;64877;50.994;13.650;2023-02-24T06:00:30;98830.50;;;6.64;79.59
76132;BME280;64877;50.994;13.650;2023-02-24T06:02:55;98831.47;;;6.63;80.11
76132;BME280;64877;50.994;13.650;2023-02-24T06:05:32;98835.31;;;6.47;79.70
76132;BME280;64877;50.994;13.650;2023-02-24T06:07:58;98831.06;;;6.56;80.54
76132;BME280;64877;50.994;13.650;2023-02-24T06:10:32;98820.47;;;6.55;79.20
76132;BME280;64877;50.994;13.650;2023-02-24T06:13:00;98825.66;;;6.45;79.79
76132;BME280;64877;50.994;13.650;2023-02-24T06:15:26;98821.78;;;6.49;80.02
76132;BME280;64877;50.994;13.650;2023-02-24T06:17:51;98827.53;;;6.56;79.50
76132;BME280;64877;50.994;13.650;2023-02-24T06:20:23;98825.31;;;6.50;78.92
76132;BME280;64877;50.994;13.650;2023-02-24T06:22:51;98825.19;;;6.51;79.29
76132;BME280;64877;50.994;13.650;2023-02-24T06:25:19;98830.56;;;6.51;79.73
76132;BME280;64877;50.994;13.650;2023-02-24T06:27:45;98835.53;;;6.44;80.46
76132;BME280;64877;50.994;13.650;2023-02-24T06:30:17;98838.16;;;6.33;80.30
76132;BME280;64877;50.994;13.650;2023-02-24T06:32:43;98836.88;;;6.26;80.92
76132;BME280;64877;50.994;13.650;2023-02-24T06:35:09;98838.59;;;6.27;79.53
76132;BME280;64877;50.994;13.650;2023-02-24T06:37:37;98833.13;;;6.29;78.85
76132;BME280;64877;50.994;13.650;2023-02-24T06:40:04;98838.31;;;6.19;79.07
76132;BME280;64877;50.994;13.650;2023-02-24T06:42:47;98834.78;;;6.06;77.90
76132;BME280;64877;50.994;13.650;2023-02-24T06:45:14;98838.13;;;5.96;79.50
76132;BME280;64877;50.994;13.650;2023-02-24T06:47:41;98836.72;;;5.91;80.68
76132;BME280;64877;50.994;13.650;2023-02-24T06:50:08;98840.59;;;6.00;80.57
76132;BME280;64877;50.994;13.650;2023-02-24T06:52:34;98831.94;;;5.83;79.58
76132;BME280;64877;50.994;13.650;2023-02-24T06:55:01;98823.66;;;5.86;78.99
76132;BME280;64877;50.994;13.650;2023-02-24T06:57:29;98828.72;;;5.78;77.56
76132;BME280;64877;50.994;13.650;2023-02-24T06:59:56;98839.66;;;5.75;79.64
76132;BME280;64877;50.994;13.650;2023-02-24T07:02:22;98833.56;;;5.73;78.40
76132;BME280;64877;50.994;13.650;2023-02-24T07:04:50;98834.72;;;5.69;77.88
76132;BME280;64877;50.994;13.650;2023-02-24T07:07:19;98841.47;;;5.75;77.45
76132;BME280;64877;50.994;13.650;2023-02-24T07:09:44;98839.72;;;5.86;79.46
76132;BME280;64877;50.994;13.650;2023-02-24T07:12:10;98841.22;;;5.90;79.74
76132;BME280;64877;50.994;13.650;2023-02-24T07:14:37;98841.25;;;6.03;78.38
76132;BME280;64877;50.994;13.650;2023-02-24T07:17:02;98838.47;;;5.79;77.22
76132;BME280;64877;50.994;13.650;2023-02-24T07:19:30;98835.88;;;6.03;77.78
76132;BME280;64877;50.994;13.650;2023-02-24T07:21:58;98832.09;;;6.06;76.65
76132;BME280;64877;50.994;13.650;2023-02-24T07:24:25;98827.41;;;6.09;74.70
76132;BME280;64877;50.994;13.650;2023-02-24T07:27:17;98831.25;;;6.05;73.94
76132;BME280;64877;50.994;13.650;2023-02-24T07:29:51;98831.16;;;5.81;76.32
76132;BME280;64877;50.994;13.650;2023-02-24T07:32:18;98823.69;;;5.61;77.24
76132;BME280;64877;50.994;13.650;2023-02-24T07:34:45;98825.84;;;5.30;78.28
76132;BME280;64877;50.994;13.650;2023-02-24T07:37:10;98823.91;;;5.45;75.10
76132;BME280;64877;50.994;13.650;2023-02-24T07:39:37;98823.69;;;5.61;75.09
76132;BME280;64877;50.994;13.650;2023-02-24T07:42:04;98820.03;;;5.62;75.93
76132;BME280;64877;50.994;13.650;2023-02-24T07:44:30;98827.09;;;5.12;77.70
76132;BME280;64877;50.994;13.650;2023-02-24T07:46:57;98828.84;;;5.13;78.15
76132;BME280;64877;50.994;13.650;2023-02-24T07:49:24;98816.84;;;5.06;78.05
76132;BME280;64877;50.994;13.650;2023-02-24T07:51:51;98816.00;;;5.18;76.76
76132;BME280;64877;50.994;13.650;2023-02-24T07:54:21;98819.22;;;5.23;78.29
76132;BME280;64877;50.994;13.650;2023-02-24T07:56:48;98816.31;;;5.26;78.90
76132;BME280;64877;50.994;13.650;2023-02-24T07:59:25;98808.50;;;5.23;78.06
76132;BME280;64877;50.994;13.650;2023-02-24T08:01:51;98806.59;;;5.12;75.44
76132;BME280;64877;50.994;13.650;2023-02-24T08:04:24;98803.56;;;5.04;77.31
76132;BME280;64877;50.994;13.650;2023-02-24T08:06:51;98805.69;;;5.12;77.40
76132;BME280;64877;50.994;13.650;2023-02-24T08:09:20;98804.13;;;5.22;75.54
76132;BME280;64877;50.994;13.650;2023-02-24T08:12:06;98794.53;;;4.80;77.37
76132;BME280;64877;50.994;13.650;2023-02-24T08:14:32;98801.41;;;4.97;77.52
76132;BME280;64877;50.994;13.650;2023-02-24T08:17:00;98794.69;;;5.16;75.12
76132;BME280;64877;50.994;13.650;2023-02-24T08:19:28;98791.69;;;5.21;76.31
76132;BME280;64877;50.994;13.650;2023-02-24T08:22:07;98789.13;;;4.94;75.72
76132;BME280;64877;50.994;13.650;2023-02-24T08:24:45;98774.44;;;4.87;75.62
76132;BME280;64877;50.994;13.650;2023-02-24T08:27:15;98773.22;;;4.53;76.50
76132;BME280;64877;50.994;13.650;2023-02-24T08:29:47;98762.53;;;4.65;77.27
76132;BME280;64877;50.994;13.650;2023-02-24T08:32:35;98774.81;;;4.55;77.83
76132;BME280;64877;50.994;13.650;2023-02-24T08:35:08;98764.06;;;4.82;76.24
76132;BME280;64877;50.994;13.650;2023-02-24T08:37:42;98761.59;;;4.79;74.98
76132;BME280;64877;50.994;13.650;2023-02-24T08:43:12;98751.03;;;5.03;73.83
76132;BME280;64877;50.994;13.650;2023-02-24T08:45:43;98757.53;;;5.12;73.71
76132;BME280;64877;50.994;13.650;2023-02-24T08:48:12;98753.16;;;5.11;74.89
76132;BME280;64877;50.994;13.650;2023-02-24T08:50:54;98748.66;;;5.11;76.31
76132;BME280;64877;50.994;13.650;2023-02-24T08:53:21;98754.56;;;5.04;73.64
76132;BME280;64877;50.994;13.650;2023-02-24T08:55:48;98754.66;;;4.89;74.92
76132;BME280;64877;50.994;13.650;2023-02-24T08:58:18;98743.22;;;5.13;74.78
76132;BME280;64877;50.994;13.650;2023-02-24T09:00:45;98739.34;;;5.17;74.07
76132;BME280;64877;50.994;13.650;2023-02-24T09:03:17;98724.38;;;4.89;75.44
76132;BME280;64877;50.994;13.650;2023-02-24T09:08:32;98726.28;;;4.74;78.20
76132;BME280;64877;50.994;13.650;2023-02-24T09:11:03;98717.19;;;4.64;79.27
76132;BME280;64877;50.994;13.650;2023-02-24T09:13:39;98713.00;;;4.60;78.37
76132;BME280;64877;50.994;13.650;2023-02-24T09:16:17;98719.63;;;4.54;78.35
76132;BME280;64877;50.994;13.650;2023-02-24T09:18:43;98716.66;;;4.59;76.98
76132;BME280;64877;50.994;13.650;2023-02-24T09:21:13;98708.94;;;4.54;78.81
76132;BME280;64877;50.994;13.650;2023-02-24T09:23:57;98711.38;;;4.57;78.92
76132;BME280;64877;50.994;13.650;2023-02-24T09:26:24;98710.03;;;4.64;79.56
76132;BME280;64877;50.994;13.650;2023-02-24T09:28:50;98704.03;;;4.61;78.90
76132;BME280;64877;50.994;13.650;2023-02-24T09:31:21;98693.34;;;4.74;77.72
76132;BME280;64877;50.994;13.650;2023-02-24T09:34:06;98683.28;;;4.64;78.96
76132;BME280;64877;50.994;13.650;2023-02-24T09:36:35;98673.25;;;4.68;78.87
76132;BME280;64877;50.994;13.650;2023-02-24T09:39:09;98662.75;;;4.78;79.82
76132;BME280;64877;50.994;13.650;2023-02-24T09:41:45;98653.22;;;4.86;79.66
76132;BME280;64877;50.994;13.650;2023-02-24T09:44:40;98640.69;;;5.00;79.48
76132;BME280;64877;50.994;13.650;2023-02-24T09:47:25;98640.47;;;5.03;79.14
76132;BME280;64877;50.994;13.650;2023-02-24T09:52:45;98625.47;;;5.13;78.34
76132;BME280;64877;50.994;13.650;2023-02-24T10:06:45;98610.78;;;6.03;76.68
76132;BME280;64877;50.994;13.650;2023-02-24T10:09:40;98607.75;;;6.08;75.50
76132;BME280;64877;50.994;13.650;2023-02-24T10:15:02;98594.72;;;6.26;74.75
76132;BME280;64877;50.994;13.650;2023-02-24T10:17:56;98584.16;;;6.35;75.18
76132;BME280;64877;50.994;13.650;2023-02-24T10:20:24;98585.41;;;6.42;74.68
76132;BME280;64877;50.994;13.650;2023-02-24T10:25:51;98566.16;;;6.60;75.52
76132;BME280;64877;50.994;13.650;2023-02-24T10:28:27;98568.09;;;6.80;73.42
76132;BME280;64877;50.994;13.650;2023-02-24T10:31:31;98549.06;;;6.61;75.79
76132;BME280;64877;50.994;13.650;2023-02-24T10:34:14;98551.25;;;7.00;72.99
76132;BME280;64877;50.994;13.650;2023-02-24T10:36:51;98546.88;;;6.88;74.52
76132;BME280;64877;50.994;13.650;2023-02-24T10:39:19;98535.69;;;6.72;75.69
76132;BME280;64877;50.994;13.650;2023-02-24T10:41:55;98529.19;;;6.74;74.81
76132;BME280;64877;50.994;13.650;2023-02-24T10:44:40;98529.53;;;6.81;74.80
76132;BME280;64877;50.994;13.650;2023-02-24T10:49:49;98515.28;;;6.69;75.66
76132;BME280;64877;50.994;13.650;2023-02-24T10:52:38;98507.13;;;6.82;75.09
76132;BME280;64877;50.994;13.650;2023-02-24T10:58:29;98499.66;;;6.97;74.89
76132;BME280;64877;50.994;13.650;2023-02-24T11:01:13;98484.13;;;7.12;73.12
76132;BME280;64877;50.994;13.650;2023-02-24T11:03:52;98481.53;;;7.21;73.14
76132;BME280;64877;50.994;13.650;2023-02-24T11:06:47;98479.31;;;7.27;72.47
76132;BME280;64877;50.994;13.650;2023-02-24T11:09:22;98474.38;;;6.99;74.66
76132;BME280;64877;50.994;13.650;2023-02-24T11:11:56;98464.22;;;7.14;74.27
76132;BME280;64877;50.994;13.650;2023-02-24T11:14:55;98463.13;;;7.17;75.23
76132;BME280;64877;50.994;13.650;2023-02-24T11:17:47;98449.28;;;7.33;73.90
76132;BME280;64877;50.994;13.650;2023-02-24T11:20:22;98443.16;;;7.31;73.96
76132;BME280;64877;50.994;13.650;2023-02-24T11:22:49;98433.06;;;7.23;75.07
76132;BME280;64877;50.994;13.650;2023-02-24T11:25:53;98426.13;;;7.20;74.07
76132;BME280;64877;50.994;13.650;2023-02-24T11:34:08;98409.97;;;7.53;73.32
76132;BME280;64877;50.994;13.650;2023-02-24T11:41:52;98385.28;;;7.89;71.56
76132;BME280;64877;50.994;13.650;2023-02-24T11:44:28;98384.44;;;7.89;73.35
76132;BME280;64877;50.994;13.650;2023-02-24T11:46:58;98378.88;;;8.01;71.55
76132;BME280;64877;50.994;13.650;2023-02-24T11:49:26;98366.44;;;8.10;71.26
76132;BME280;64877;50.994;13.650;2023-02-24T11:51:54;98367.06;;;7.93;70.56
76132;BME280;64877;50.994;13.650;2023-02-24T11:54:21;98370.88;;;7.90;70.38
76132;BME280;64877;50.994;13.650;2023-02-24T11:56:52;98359.38;;;7.78;70.73
76132;BME280;64877;50.994;13.650;2023-02-24T11:59:35;98360.84;;;7.92;68.77
76132;BME280;64877;50.994;13.650;2023-02-24T12:05:10;98347.84;;;7.97;68.66
76132;BME280;64877;50.994;13.650;2023-02-24T12:07:40;98334.47;;;8.17;67.08
76132;BME280;64877;50.994;13.650;2023-02-24T12:17:52;98323.47;;;7.89;67.55
76132;BME280;64877;50.994;13.650;2023-02-24T12:20:27;98323.31;;;7.81;69.30
76132;BME280;64877;50.994;13.650;2023-02-24T12:22:57;98307.50;;;7.88;67.75
76132;BME280;64877;50.994;13.650;2023-02-24T12:25:28;98294.53;;;8.02;67.58
76132;BME280;64877;50.994;13.650;2023-02-24T12:28:07;98304.56;;;8.00;68.22
76132;BME280;64877;50.994;13.650;2023-02-24T12:31:04;98296.16;;;7.84;68.56
76132;BME280;64877;50.994;13.650;2023-02-24T12:39:36;98286.22;;;8.06;67.74
76132;BME280;64877;50.994;13.650;2023-02-24T12:42:20;98284.38;;;8.06;66.53
76132;BME280;64877;50.994;13.650;2023-02-24T12:48:20;98272.00;;;7.94;66.73
76132;BME280;64877;50.994;13.650;2023-02-24T12:51:03;98266.91;;;7.91;66.99
76132;BME280;64877;50.994;13.650;2023-02-24T12:56:25;98269.00;;;7.77;68.49
76132;BME280;64877;50.994;13.650;2023-02-24T12:58:58;98244.91;;;7.66;68.18
76132;BME280;64877;50.994;13.650;2023-02-24T13:01:40;98239.22;;;7.60;68.06
76132;BME280;64877;50.994;13.650;2023-02-24T13:09:38;98236.06;;;7.55;69.86
76132;BME280;64877;50.994;13.650;2023-02-24T13:12:42;98227.06;;;7.65;69.17
76132;BME280;64877;50.994;13.650;2023-02-24T13:15:19;98222.75;;;7.43;70.65
76132;BME280;64877;50.994;13.650;2023-02-24T13:17:47;98224.19;;;7.47;69.34
76132;BME280;64877;50.994;13.650;2023-02-24T13:20:34;98218.09;;;7.45;69.68
76132;BME280;64877;50.994;13.650;2023-02-24T13:23:03;98219.97;;;7.55;69.89
76132;BME280;64877;50.994;13.650;2023-02-24T13:25:49;98216.53;;;7.43;70.04
76132;BME280;64877;50.994;13.650;2023-02-24T13:33:41;98203.41;;;7.19;73.29
76132;BME280;64877;50.994;13.650;2023-02-24T13:38:47;98206.97;;;6.98;72.78
76132;BME280;64877;50.994;13.650;2023-02-24T13:41:38;98196.75;;;7.13;74.04
76132;BME280;64877;50.994;13.650;2023-02-24T13:44:24;98184.94;;;7.25;73.18
76132;BME280;64877;50.994;13.650;2023-02-24T13:47:28;98181.41;;;7.25;72.16
76132;BME280;64877;50.994;13.650;2023-02-24T13:50:22;98180.44;;;7.26;73.10
76132;BME280;64877;50.994;13.650;2023-02-24T13:55:48;98166.16;;;7.35;72.52
76132;BME280;64877;50.994;13.650;2023-02-24T14:01:21;98160.47;;;7.19;73.03
76132;BME280;64877;50.994;13.650;2023-02-24T14:06:45;98156.78;;;7.20;73.62
76132;BME280;64877;50.994;13.650;2023-02-24T14:09:14;98148.66;;;7.31;73.03
76132;BME280;64877;50.994;13.650;2023-02-24T14:11:40;98150.34;;;7.32;72.03
76132;BME280;64877;50.994;13.650;2023-02-24T14:14:13;98149.94;;;7.37;72.71
76132;BME280;64877;50.994;13.650;2023-02-24T14:16:40;98148.22;;;7.36;72.26
76132;BME280;64877;50.994;13.650;2023-02-24T14:19:13;98142.72;;;7.37;72.99
76132;BME280;64877;50.994;13.650;2023-02-24T14:21:47;98139.56;;;7.22;73.16
76132;BME280;64877;50.994;13.650;2023-02-24T14:24:14;98146.50;;;7.25;73.03
76132;BME280;64877;50.994;13.650;2023-02-24T14:29:18;98144.69;;;7.35;72.93
76132;BME280;64877;50.994;13.650;2023-02-24T14:31:49;98138.50;;;7.44;71.74
76132;BME280;64877;50.994;13.650;2023-02-24T14:34:21;98129.44;;;7.45;71.38
76132;BME280;64877;50.994;13.650;2023-02-24T14:36:50;98138.38;;;7.46;71.32
76132;BME280;64877;50.994;13.650;2023-02-24T14:39:24;98126.75;;;7.45;70.38
76132;BME280;64877;50.994;13.650;2023-02-24T14:44:40;98119.81;;;7.33;69.34
76132;BME280;64877;50.994;13.650;2023-02-24T14:47:09;98119.13;;;7.31;69.50
76132;BME280;64877;50.994;13.650;2023-02-24T14:49:35;98113.72;;;7.21;69.98
76132;BME280;64877;50.994;13.650;2023-02-24T14:57:04;98113.13;;;7.18;69.21
76132;BME280;64877;50.994;13.650;2023-02-24T14:59:35;98099.59;;;7.29;68.17
76132;BME280;64877;50.994;13.650;2023-02-24T15:02:03;98099.59;;;7.29;69.12
76132;BME280;64877;50.994;13.650;2023-02-24T15:04:36;98095.66;;;7.33;67.60
76132;BME280;64877;50.994;13.650;2023-02-24T15:07:05;98092.84;;;7.44;67.41
76132;BME280;64877;50.994;13.650;2023-02-24T15:09:35;98081.22;;;7.24;68.40
76132;BME280;64877;50.994;13.650;2023-02-24T15:12:19;98079.25;;;7.27;67.51
76132;BME280;64877;50.994;13.650;2023-02-24T15:14:47;98074.16;;;7.33;67.36
76132;BME280;64877;50.994;13.650;2023-02-24T15:17:15;98067.97;;;7.33;66.13
76132;BME280;64877;50.994;13.650;2023-02-24T15:19:42;98073.16;;;7.24;67.51
76132;BME280;64877;50.994;13.650;2023-02-24T15:24:47;98057.00;;;7.05;68.51
76132;BME280;64877;50.994;13.650;2023-02-24T15:29:39;98054.06;;;7.18;67.72
76132;BME280;64877;50.994;13.650;2023-02-24T15:32:14;98050.66;;;7.16;67.87
76132;BME280;64877;50.994;13.650;2023-02-24T15:34:43;98044.34;;;7.27;67.60
76132;BME280;64877;50.994;13.650;2023-02-24T15:37:14;98046.28;;;7.15;68.04
76132;BME280;64877;50.994;13.650;2023-02-24T15:39:42;98042.16;;;7.11;68.41
76132;BME280;64877;50.994;13.650;2023-02-24T15:42:15;98038.13;;;7.16;68.15
76132;BME280;64877;50.994;13.650;2023-02-24T15:44:52;98036.81;;;7.20;67.51
76132;BME280;64877;50.994;13.650;2023-02-24T15:47:22;98032.16;;;7.13;67.78
76132;BME280;64877;50.994;13.650;2023-02-24T15:49:47;98027.22;;;7.18;66.81